createdAt,value
2022-07-29T00:01:23.008Z,2.55
2022-07-29T00:03:56.958Z,3.15
2022-07-29T00:06:25.294Z,2.97
2022-07-29T00:08:56.301Z,3.03
2022-07-29T00:11:24.509Z,3.17
2022-07-29T00:13:54.038Z,2.75
2022-07-29T00:16:22.345Z,2.50
2022-07-29T00:18:50.808Z,2.30
2022-07-29T00:21:19.014Z,2.67
2022-07-29T00:23:47.291Z,2.50
2022-07-29T00:26:15.512Z,2.63
2022-07-29T00:28:43.746Z,2.78
2022-07-29T00:31:13.384Z,2.58
2022-07-29T00:33:41.648Z,2.53
2022-07-29T00:36:08.909Z,2.70
2022-07-29T00:38:37.119Z,3.08
2022-07-29T00:41:05.347Z,2.72
2022-07-29T00:43:33.603Z,3.10
2022-07-29T00:46:01.833Z,2.78
2022-07-29T00:48:33.196Z,2.70
2022-07-29T00:51:04.051Z,3.00
2022-07-29T00:53:34.063Z,2.72
2022-07-29T00:56:02.466Z,2.90
2022-07-29T00:58:30.733Z,2.78
2022-07-29T01:01:00.522Z,2.70
2022-07-29T01:03:28.747Z,2.65
2022-07-29T01:05:58.972Z,2.75
2022-07-29T01:08:27.292Z,2.67
2022-07-29T01:10:56.317Z,2.70
2022-07-29T01:13:25.617Z,3.05
2022-07-29T01:16:00.468Z,2.88
2022-07-29T01:18:37.007Z,2.92
2022-07-29T01:21:35.472Z,3.10
2022-07-29T01:24:45.518Z,2.75
2022-07-29T01:27:32.116Z,2.70
2022-07-29T01:30:05.148Z,3.05
2022-07-29T01:32:38.761Z,3.00
2022-07-29T01:35:15.410Z,2.90
2022-07-29T01:37:49.344Z,3.10
2022-07-29T01:40:26.124Z,3.15
2022-07-29T01:42:59.507Z,2.97
2022-07-29T01:45:39.385Z,3.10
2022-07-29T01:48:15.568Z,3.25
2022-07-29T01:50:50.559Z,2.80
2022-07-29T01:53:28.870Z,2.83
2022-07-29T01:56:08.622Z,2.97
2022-07-29T01:58:39.521Z,2.83
2022-07-29T02:01:12.021Z,2.90
2022-07-29T02:03:46.484Z,2.90
2022-07-29T02:06:23.635Z,2.90
2022-07-29T02:08:53.513Z,3.10
2022-07-29T02:11:21.886Z,2.95
2022-07-29T02:13:52.754Z,3.15
2022-07-29T02:16:25.019Z,2.90
2022-07-29T02:18:57.839Z,2.95
2022-07-29T02:21:29.089Z,3.03
2022-07-29T02:24:01.927Z,2.80
2022-07-29T02:26:31.662Z,3.15
2022-07-29T02:29:01.246Z,2.60
2022-07-29T02:31:35.318Z,3.20
2022-07-29T02:34:05.861Z,2.80
2022-07-29T02:36:35.430Z,3.13
2022-07-29T02:39:05.303Z,3.08
2022-07-29T02:41:44.391Z,2.75
2022-07-29T02:44:15.415Z,3.40
2022-07-29T02:46:52.044Z,3.25
2022-07-29T02:49:36.524Z,2.80
2022-07-29T02:52:09.050Z,2.50
2022-07-29T02:54:44.155Z,2.92
2022-07-29T02:57:20.260Z,2.88
2022-07-29T02:59:52.451Z,3.08
2022-07-29T03:02:23.912Z,2.92
2022-07-29T03:04:55.182Z,3.00
2022-07-29T03:07:24.696Z,3.08
2022-07-29T03:09:53.967Z,2.78
2022-07-29T03:12:22.868Z,3.00
2022-07-29T03:14:51.635Z,3.20
2022-07-29T03:17:20.224Z,3.03
2022-07-29T03:19:50.554Z,3.22
2022-07-29T03:22:19.321Z,3.30
2022-07-29T03:24:47.894Z,3.13
2022-07-29T03:27:16.459Z,3.28
2022-07-29T03:29:50.514Z,3.35
2022-07-29T03:32:23.820Z,2.83
2022-07-29T03:34:55.156Z,3.50
2022-07-29T03:37:23.472Z,3.05
2022-07-29T03:39:55.096Z,3.40
2022-07-29T03:42:32.405Z,3.33
2022-07-29T03:45:08.536Z,3.35
2022-07-29T03:47:49.933Z,3.20
2022-07-29T03:50:23.585Z,3.08
2022-07-29T03:52:52.027Z,3.47
2022-07-29T03:55:20.393Z,3.33
2022-07-29T03:57:50.883Z,3.35
2022-07-29T04:00:20.486Z,2.90
2022-07-29T04:02:50.322Z,3.08
2022-07-29T04:05:26.548Z,3.40
2022-07-29T04:07:54.851Z,3.72
2022-07-29T04:10:30.668Z,3.22
2022-07-29T04:13:00.693Z,3.38
2022-07-29T04:15:31.222Z,3.03
2022-07-29T04:18:00.500Z,3.40
2022-07-29T04:20:30.247Z,3.47
2022-07-29T04:22:58.493Z,3.38
2022-07-29T04:25:26.769Z,3.58
2022-07-29T04:28:04.312Z,4.00
2022-07-29T04:30:34.357Z,4.00
2022-07-29T04:33:04.404Z,3.88
2022-07-29T04:35:38.917Z,4.07
2022-07-29T04:38:18.089Z,4.30
2022-07-29T04:40:47.176Z,3.10
2022-07-29T04:43:22.621Z,3.63
2022-07-29T04:45:52.280Z,3.35
2022-07-29T04:48:23.008Z,3.38
2022-07-29T04:50:58.222Z,3.85
2022-07-29T04:53:27.363Z,3.75
2022-07-29T04:55:55.657Z,4.22
2022-07-29T04:58:25.037Z,3.78
2022-07-29T05:00:53.359Z,3.97
2022-07-29T05:03:21.609Z,3.58
2022-07-29T05:05:49.983Z,3.53
2022-07-29T05:08:19.577Z,3.97
2022-07-29T05:10:47.946Z,3.80
2022-07-29T05:13:17.093Z,4.28
2022-07-29T05:15:45.646Z,3.70
2022-07-29T05:18:14.056Z,3.97
2022-07-29T05:20:42.519Z,4.25
2022-07-29T05:23:13.650Z,3.80
2022-07-29T05:25:44.933Z,4.13
2022-07-29T05:28:13.994Z,3.97
2022-07-29T05:30:42.299Z,4.35
2022-07-29T05:33:35.514Z,3.85
2022-07-29T05:36:00.733Z,4.72
2022-07-29T05:38:29.849Z,4.57
2022-07-29T05:41:01.232Z,4.15
2022-07-29T05:43:30.199Z,4.00
2022-07-29T05:45:58.947Z,4.05
2022-07-29T05:48:27.399Z,4.13
2022-07-29T05:50:56.036Z,3.83
2022-07-29T05:53:24.700Z,3.65
2022-07-29T05:55:53.354Z,3.50
2022-07-29T05:58:23.268Z,3.63
2022-07-29T06:00:51.600Z,3.05
2022-07-29T06:03:19.803Z,3.80
2022-07-29T06:05:48.103Z,3.80
2022-07-29T06:08:16.361Z,3.40
2022-07-29T06:10:45.161Z,3.60
2022-07-29T06:13:14.057Z,3.22
2022-07-29T06:15:44.300Z,3.15
2022-07-29T06:18:14.940Z,3.38
2022-07-29T06:20:43.347Z,3.55
2022-07-29T06:23:11.631Z,3.20
2022-07-29T06:25:41.870Z,3.38
2022-07-29T06:28:10.388Z,3.00
2022-07-29T06:30:38.824Z,3.03
2022-07-29T06:33:08.573Z,3.20
2022-07-29T06:35:41.916Z,3.67
2022-07-29T06:38:30.107Z,3.00
2022-07-29T06:41:04.697Z,3.08
2022-07-29T06:43:50.488Z,2.97
2022-07-29T06:46:21.821Z,2.72
2022-07-29T06:48:53.260Z,3.53
2022-07-29T06:51:23.314Z,3.40
2022-07-29T06:54:00.216Z,3.50
2022-07-29T06:56:38.906Z,2.90
2022-07-29T06:59:08.720Z,2.42
2022-07-29T07:01:38.336Z,2.90
2022-07-29T07:04:09.609Z,2.60
2022-07-29T07:06:38.749Z,2.95
2022-07-29T07:09:07.283Z,2.65
2022-07-29T07:11:35.772Z,2.80
2022-07-29T07:14:08.851Z,2.65
2022-07-29T07:16:37.164Z,2.65
2022-07-29T07:19:07.100Z,2.70
2022-07-29T07:21:36.444Z,2.92
2022-07-29T07:24:06.056Z,2.80
2022-07-29T07:26:34.292Z,2.58
2022-07-29T07:29:02.624Z,2.88
2022-07-29T07:31:31.089Z,2.50
2022-07-29T07:34:00.037Z,2.40
2022-07-29T07:36:29.766Z,2.35
2022-07-29T07:38:58.094Z,2.40
2022-07-29T07:41:26.866Z,2.10
2022-07-29T07:44:01.113Z,2.60
2022-07-29T07:46:29.556Z,2.67
2022-07-29T07:48:57.852Z,2.58
2022-07-29T07:51:26.171Z,2.72
2022-07-29T07:53:55.927Z,2.10
2022-07-29T07:56:25.978Z,2.58
2022-07-29T07:58:54.166Z,2.30
2022-07-29T08:01:23.984Z,2.55
2022-07-29T08:03:57.122Z,2.13
2022-07-29T08:06:26.059Z,2.53
2022-07-29T08:08:56.392Z,2.17
2022-07-29T08:11:25.289Z,1.98
2022-07-29T08:13:53.603Z,2.20
2022-07-29T08:16:21.959Z,2.38
2022-07-29T08:18:50.338Z,1.90
2022-07-29T08:21:18.831Z,1.90
2022-07-29T08:23:56.157Z,1.80
2022-07-29T08:26:28.508Z,1.95
2022-07-29T08:28:56.768Z,1.90
2022-07-29T08:31:25.078Z,1.90
2022-07-29T08:33:53.393Z,1.67
2022-07-29T08:36:22.913Z,1.70
2022-07-29T08:38:51.940Z,1.80
2022-07-29T08:41:20.846Z,1.77
2022-07-29T08:43:51.962Z,2.00
2022-07-29T08:46:21.464Z,1.70
2022-07-29T08:48:50.500Z,2.10
2022-07-29T08:51:21.367Z,1.95
2022-07-29T08:53:52.161Z,2.15
2022-07-29T08:56:21.644Z,2.38
2022-07-29T08:58:52.721Z,2.25
2022-07-29T09:01:35.233Z,2.13
2022-07-29T09:04:08.468Z,2.15
2022-07-29T09:06:42.655Z,2.10
2022-07-29T09:09:11.296Z,2.50
2022-07-29T09:11:39.783Z,2.10
2022-07-29T09:14:09.885Z,2.10
2022-07-29T09:16:58.140Z,1.98
2022-07-29T09:19:29.982Z,2.00
2022-07-29T09:21:59.244Z,2.00
2022-07-29T09:24:38.707Z,2.20
2022-07-29T09:27:13.301Z,2.20
2022-07-29T09:29:43.177Z,2.10
2022-07-29T09:32:12.553Z,2.35
2022-07-29T09:34:40.872Z,2.33
2022-07-29T09:37:09.306Z,2.92
2022-07-29T09:39:46.411Z,2.00
2022-07-29T09:42:16.711Z,2.20
2022-07-29T09:44:50.134Z,2.30
2022-07-29T09:47:22.762Z,1.90
2022-07-29T09:49:58.862Z,2.17
2022-07-29T09:52:28.025Z,2.30
2022-07-29T09:55:07.679Z,2.10
2022-07-29T09:57:36.032Z,2.03
2022-07-29T10:00:09.122Z,1.90
2022-07-29T10:02:47.040Z,2.08
2022-07-29T10:05:22.919Z,1.83
2022-07-29T10:07:57.414Z,2.00
2022-07-29T10:10:29.780Z,2.00
2022-07-29T10:13:04.619Z,2.40
2022-07-29T10:15:41.725Z,2.08
2022-07-29T10:18:11.057Z,2.20
2022-07-29T10:20:40.148Z,2.03
2022-07-29T10:23:08.433Z,2.20
2022-07-29T10:25:36.709Z,2.40
2022-07-29T10:28:05.556Z,2.25
2022-07-29T10:30:33.995Z,2.35
2022-07-29T10:33:30.922Z,2.25
2022-07-29T10:36:18.533Z,2.03
2022-07-29T10:39:03.628Z,2.38
2022-07-29T10:41:49.711Z,2.42
2022-07-29T10:47:09.608Z,2.40
2022-07-29T10:49:41.081Z,2.53
2022-07-29T10:52:11.565Z,2.28
2022-07-29T10:54:47.302Z,2.20
2022-07-29T10:57:18.557Z,2.40
2022-07-29T10:59:52.924Z,2.35
2022-07-29T11:02:56.479Z,2.42
2022-07-29T11:05:32.055Z,2.20
2022-07-29T11:08:27.653Z,2.22
2022-07-29T11:11:43.793Z,2.70
2022-07-29T11:14:15.822Z,2.50
2022-07-29T11:17:06.891Z,2.67
2022-07-29T11:19:40.231Z,2.45
2022-07-29T11:22:16.571Z,2.17
2022-07-29T11:24:50.164Z,2.50
2022-07-29T11:30:12.946Z,2.35
2022-07-29T11:32:48.613Z,2.92
2022-07-29T11:35:36.794Z,2.22
2022-07-29T11:38:31.926Z,2.80
2022-07-29T11:41:27.208Z,2.75
2022-07-29T11:43:58.418Z,2.58
2022-07-29T11:46:49.997Z,2.17
2022-07-29T11:49:32.628Z,2.88
2022-07-29T11:52:03.943Z,2.50
2022-07-29T11:54:38.841Z,2.80
2022-07-29T11:57:36.248Z,2.55
2022-07-29T12:00:12.585Z,2.70
2022-07-29T12:03:35.093Z,2.83
2022-07-29T12:06:14.356Z,2.55
2022-07-29T12:07:03.415Z,2.85
2022-07-29T12:08:45.206Z,2.92
2022-07-29T12:11:23.575Z,2.60
2022-07-29T12:13:53.129Z,2.58
2022-07-29T12:16:25.867Z,2.80
2022-07-29T12:18:59.782Z,2.75
2022-07-29T12:21:29.331Z,2.88
2022-07-29T12:24:05.882Z,2.78
2022-07-29T12:26:40.550Z,2.95
2022-07-29T12:29:15.403Z,2.92
2022-07-29T12:31:45.553Z,2.97
2022-07-29T12:34:17.849Z,3.00
2022-07-29T12:36:46.446Z,3.00
2022-07-29T12:39:14.959Z,2.92
2022-07-29T12:41:45.252Z,3.00
2022-07-29T12:44:13.969Z,3.20
2022-07-29T12:46:42.417Z,3.25
2022-07-29T12:49:10.797Z,3.30
2022-07-29T12:51:42.150Z,3.03
2022-07-29T12:54:14.265Z,3.70
2022-07-29T12:56:45.988Z,2.90
2022-07-29T12:59:16.938Z,3.17
2022-07-29T13:01:45.997Z,3.53
2022-07-29T13:04:27.437Z,3.53
2022-07-29T13:07:04.522Z,3.45
2022-07-29T13:09:40.854Z,3.65
2022-07-29T13:12:13.914Z,3.53
2022-07-29T13:14:44.441Z,3.15
2022-07-29T13:17:15.096Z,3.28
2022-07-29T13:19:45.400Z,3.92
2022-07-29T13:22:17.020Z,3.22
2022-07-29T13:24:52.986Z,3.88
2022-07-29T13:27:25.364Z,3.40
2022-07-29T13:29:57.393Z,3.50
2022-07-29T13:32:28.225Z,3.53
2022-07-29T13:34:57.513Z,3.33
2022-07-29T13:37:26.924Z,3.20
2022-07-29T13:39:56.897Z,3.33
2022-07-29T13:42:27.286Z,3.53
2022-07-29T13:44:55.589Z,3.60
2022-07-29T13:47:32.176Z,3.13
2022-07-29T13:50:01.820Z,3.25
2022-07-29T13:52:56.048Z,3.50
2022-07-29T13:55:24.390Z,3.35
2022-07-29T13:57:54.162Z,3.42
2022-07-29T14:00:22.461Z,3.65
2022-07-29T14:02:50.723Z,3.88
2022-07-29T14:05:20.446Z,3.45
2022-07-29T14:07:48.725Z,3.67
2022-07-29T14:10:20.057Z,3.15
2022-07-29T14:12:48.513Z,3.65
2022-07-29T14:15:18.301Z,3.22
2022-07-29T14:17:46.549Z,3.40
2022-07-29T14:20:16.538Z,3.63
2022-07-29T14:22:45.840Z,3.40
2022-07-29T14:25:15.527Z,3.05
2022-07-29T14:27:44.716Z,3.35
2022-07-29T14:30:14.388Z,2.67
2022-07-29T14:32:44.179Z,2.50
2022-07-29T14:35:12.687Z,2.30
2022-07-29T14:37:41.233Z,2.50
2022-07-29T14:40:11.650Z,2.13
2022-07-29T14:42:40.404Z,2.42
2022-07-29T14:45:11.419Z,1.70
2022-07-29T14:47:40.477Z,1.65
2022-07-29T14:50:11.424Z,1.30
2022-07-29T14:52:39.997Z,1.40
2022-07-29T14:55:19.580Z,1.50
2022-07-29T14:57:49.400Z,1.75
2022-07-29T15:00:18.394Z,1.60
2022-07-29T15:03:01.364Z,1.70
2022-07-29T15:05:32.190Z,1.55
2022-07-29T15:08:01.068Z,1.70
2022-07-29T15:10:29.768Z,1.90
2022-07-29T15:12:58.828Z,1.75
2022-07-29T15:15:27.379Z,1.50
2022-07-29T15:17:55.678Z,1.98
2022-07-29T15:20:26.180Z,1.67
2022-07-29T15:22:56.855Z,1.70
2022-07-29T15:25:26.409Z,1.80
2022-07-29T15:28:01.162Z,2.80
2022-07-29T15:30:33.995Z,2.75
2022-07-29T15:33:04.095Z,2.38
2022-07-29T15:35:32.586Z,2.78
2022-07-29T15:38:02.343Z,2.70
2022-07-29T15:40:30.693Z,2.63
2022-07-29T15:43:01.759Z,2.70
2022-07-29T15:45:32.071Z,2.28
2022-07-29T15:48:01.376Z,2.80
2022-07-29T15:50:29.592Z,2.45
2022-07-29T15:52:58.241Z,2.70
2022-07-29T15:55:28.099Z,2.45
2022-07-29T15:58:00.461Z,2.40
2022-07-29T16:00:29.314Z,2.40
2022-07-29T16:06:03.767Z,2.47
2022-07-29T16:08:32.259Z,2.17
2022-07-29T16:11:01.828Z,2.15
2022-07-29T16:13:30.216Z,2.00
2022-07-29T16:16:01.847Z,2.35
2022-07-29T16:18:31.686Z,2.10
2022-07-29T16:21:00.029Z,2.08
2022-07-29T16:23:28.402Z,1.90
2022-07-29T16:26:00.245Z,1.80
2022-07-29T16:28:30.957Z,2.15
2022-07-29T16:30:59.268Z,2.10
2022-07-29T16:33:28.322Z,1.92
2022-07-29T16:36:18.486Z,2.50
2022-07-29T16:38:47.616Z,1.98
2022-07-29T16:41:16.421Z,2.35
2022-07-29T16:43:46.158Z,2.10
2022-07-29T16:46:17.775Z,2.13
2022-07-29T16:48:47.614Z,2.22
2022-07-29T16:51:16.853Z,2.13
2022-07-29T16:53:45.210Z,1.95
2022-07-29T16:56:13.501Z,2.10
2022-07-29T16:58:44.069Z,2.30
2022-07-29T17:01:14.124Z,2.35
2022-07-29T17:04:02.706Z,2.00
2022-07-29T17:06:32.655Z,2.65
2022-07-29T17:09:01.361Z,1.90
2022-07-29T17:11:51.941Z,1.90
2022-07-29T17:14:17.875Z,2.22
2022-07-29T17:17:00.642Z,1.75
2022-07-29T17:19:31.492Z,1.80
2022-07-29T17:22:08.974Z,1.85
2022-07-29T17:24:40.222Z,2.30
2022-07-29T17:27:09.741Z,2.35
2022-07-29T17:29:38.744Z,2.28
2022-07-29T17:32:10.416Z,2.25
2022-07-29T17:34:43.912Z,2.30
2022-07-29T17:37:13.372Z,2.08
2022-07-29T17:39:43.158Z,2.35
2022-07-29T17:42:13.424Z,2.20
2022-07-29T17:44:41.820Z,2.40
2022-07-29T17:47:15.985Z,2.40
2022-07-29T17:49:45.630Z,2.40
2022-07-29T17:52:14.002Z,2.40
2022-07-29T17:54:42.234Z,2.40
2022-07-29T17:57:10.509Z,2.45
2022-07-29T17:59:45.238Z,2.70
2022-07-29T18:02:14.940Z,2.70
2022-07-29T18:04:43.244Z,2.83
2022-07-29T18:07:11.576Z,2.60
2022-07-29T18:09:39.766Z,2.70
2022-07-29T18:12:09.509Z,3.22
2022-07-29T18:14:37.681Z,2.95
2022-07-29T18:17:05.884Z,2.78
2022-07-29T18:19:35.515Z,3.35
2022-07-29T18:22:05.146Z,2.70
2022-07-29T18:24:34.916Z,3.00
2022-07-29T18:27:03.123Z,2.80
2022-07-29T18:29:31.365Z,2.78
2022-07-29T18:31:59.967Z,3.03
2022-07-29T18:34:28.283Z,3.35
2022-07-29T18:36:58.191Z,2.92
2022-07-29T18:39:26.576Z,3.00
2022-07-29T18:41:54.814Z,3.33
2022-07-29T18:44:23.369Z,2.95
2022-07-29T18:46:52.560Z,2.97
2022-07-29T18:49:20.940Z,2.60
2022-07-29T18:51:49.884Z,3.50
2022-07-29T18:54:20.668Z,3.20
2022-07-29T18:56:48.892Z,3.45
2022-07-29T18:59:20.116Z,3.35
2022-07-29T19:01:48.864Z,3.30
2022-07-29T19:04:17.499Z,3.28
2022-07-29T19:06:46.146Z,3.13
2022-07-29T19:09:14.466Z,3.47
2022-07-29T19:11:44.155Z,3.10
2022-07-29T19:14:12.859Z,2.97
2022-07-29T19:16:41.129Z,3.42
2022-07-29T19:19:09.423Z,3.55
2022-07-29T19:21:37.752Z,3.30
2022-07-29T19:24:11.026Z,3.42
2022-07-29T19:26:46.735Z,2.60
2022-07-29T19:29:15.320Z,2.58
2022-07-29T19:31:44.345Z,2.70
2022-07-29T19:34:13.039Z,2.70
2022-07-29T19:36:41.853Z,2.60
2022-07-29T19:39:10.408Z,2.63
2022-07-29T19:41:39.034Z,2.00
2022-07-29T19:44:08.649Z,2.53
2022-07-29T19:46:37.022Z,2.20
2022-07-29T19:49:06.509Z,2.70
2022-07-29T19:51:34.867Z,2.58
2022-07-29T19:54:03.297Z,2.38
2022-07-29T19:56:31.961Z,2.03
2022-07-29T19:59:00.744Z,2.20
2022-07-29T20:01:55.971Z,2.10
2022-07-29T20:04:24.221Z,1.95
2022-07-29T20:06:56.002Z,1.70
2022-07-29T20:09:24.466Z,2.15
2022-07-29T20:11:52.686Z,2.00
2022-07-29T20:14:20.971Z,1.92
2022-07-29T20:16:49.254Z,1.92
2022-07-29T20:19:18.994Z,2.03
2022-07-29T20:21:47.226Z,1.67
2022-07-29T20:24:15.498Z,1.80
2022-07-29T20:26:43.697Z,2.25
2022-07-29T20:29:11.934Z,2.00
2022-07-29T20:31:46.352Z,1.88
2022-07-29T20:34:26.298Z,2.10
2022-07-29T20:36:54.562Z,1.83
2022-07-29T20:39:23.337Z,2.20
2022-07-29T20:41:51.924Z,2.10
2022-07-29T20:44:20.305Z,1.98
2022-07-29T20:46:48.907Z,1.83
2022-07-29T20:49:17.258Z,1.90
2022-07-29T20:51:46.973Z,2.00
2022-07-29T20:54:15.247Z,2.20
2022-07-29T20:56:43.478Z,2.58
2022-07-29T20:59:11.806Z,2.17
2022-07-29T21:01:40.142Z,2.22
2022-07-29T21:04:08.462Z,1.80
2022-07-29T21:06:36.830Z,2.10
2022-07-29T21:09:06.456Z,2.58
2022-07-29T21:11:43.329Z,2.30
2022-07-29T21:14:20.430Z,2.30
2022-07-29T21:16:50.200Z,2.25
2022-07-29T21:19:18.423Z,2.03
2022-07-29T21:21:46.691Z,2.20
2022-07-29T21:24:16.293Z,2.53
2022-07-29T21:26:54.469Z,2.35
2022-07-29T21:29:32.256Z,2.50
2022-07-29T21:32:00.471Z,2.33
2022-07-29T21:34:28.793Z,2.35
2022-07-29T21:36:57.025Z,2.25
2022-07-29T21:39:27.963Z,2.28
2022-07-29T21:41:56.306Z,2.17
2022-07-29T21:44:24.569Z,2.10
2022-07-29T21:46:52.816Z,2.22
2022-07-29T21:49:21.111Z,2.45
2022-07-29T21:51:49.351Z,2.58
2022-07-29T21:54:19.089Z,2.35
2022-07-29T21:56:51.178Z,2.45
2022-07-29T21:59:20.036Z,2.28
2022-07-29T22:01:48.557Z,2.75
2022-07-29T22:04:17.259Z,2.85
2022-07-29T22:06:45.496Z,2.60
2022-07-29T22:09:13.821Z,2.70
2022-07-29T22:11:42.470Z,2.30
2022-07-29T22:14:12.334Z,2.38
2022-07-29T22:16:40.661Z,2.65
2022-07-29T22:19:09.042Z,2.88
2022-07-29T22:21:37.242Z,2.40
2022-07-29T22:24:06.093Z,2.97
2022-07-29T22:26:34.466Z,2.72
2022-07-29T22:29:02.698Z,2.75
2022-07-29T22:31:32.363Z,2.88
2022-07-29T22:34:00.760Z,2.60
2022-07-29T22:36:29.071Z,2.63
2022-07-29T22:38:57.321Z,2.33
2022-07-29T22:41:25.522Z,2.45
2022-07-29T22:43:53.811Z,2.78
2022-07-29T22:46:22.296Z,2.80
2022-07-29T22:48:51.940Z,2.70
2022-07-29T22:51:20.147Z,2.67
2022-07-29T22:53:48.413Z,2.53
2022-07-29T22:56:16.887Z,2.50
2022-07-29T22:58:45.132Z,2.47
2022-07-29T23:01:13.881Z,2.75
2022-07-29T23:03:42.220Z,2.50
2022-07-29T23:06:21.521Z,2.60
2022-07-29T23:08:49.784Z,2.33
2022-07-29T23:11:18.128Z,2.55
2022-07-29T23:13:46.416Z,2.40
2022-07-29T23:16:14.732Z,2.90
2022-07-29T23:18:55.738Z,2.63
2022-07-29T23:21:26.160Z,2.83
2022-07-29T23:23:54.410Z,2.55
2022-07-29T23:26:23.096Z,2.38
2022-07-29T23:28:51.768Z,2.47
2022-07-29T23:31:20.031Z,2.63
2022-07-29T23:33:48.286Z,2.60
2022-07-29T23:36:16.821Z,2.75
2022-07-29T23:38:46.718Z,2.50
2022-07-29T23:41:15.390Z,2.72
2022-07-29T23:43:43.679Z,2.80
2022-07-29T23:46:11.903Z,2.38
2022-07-29T23:48:40.249Z,3.13
2022-07-29T23:51:08.890Z,3.13
2022-07-29T23:53:38.656Z,2.90
2022-07-29T23:56:24.104Z,3.00
2022-07-29T23:58:52.804Z,2.95
